ALO weather

Waterloo Regional Airport
Waterloo, Iowa, United States

Public forecast

Using degrees Fahrenheit for public forecast. Weather courtesy of forecast.io.

METAR (pilot weather report)

Retrieved 2019/09/18 18:54 UTC (6 minutes ago):

KALO 181854Z 08005KT 7SM VCTS -RA FEW065 FEW080 OVC100 23/20 A3002 RMK AO2 LTG DSNT ALQDS RAB09 TSB18E37 SLP160 P0007 T02330200

TAF (pilot weather forecast)

Retrieved 2019/09/18 18:27 UTC (33 minutes ago):

TAF KALO 181724Z 1818/1918 VRB05KT P6SM SCT035 BKN070 TEMPO 1818/1821 6SM -TSRA BR BKN040CB FM182300 16008KT P6SM BKN050 FM191000 15004KT 6SM -SHRA BR VCTS SCT025 BKN040CB